sensor_id;sensor_type;location;lat;lon;timestamp;pressure;altitude;pressure_sealevel;temperature;humidity
46015;BME280;36844;51.898;-0.874;2023-02-23T00:00:07;100356.66;;;19.28;
46015;BME280;36844;51.898;-0.874;2023-02-23T00:02:44;100358.97;;;19.26;
46015;BME280;36844;51.898;-0.874;2023-02-23T00:05:10;100365.94;;;19.23;
46015;BME280;36844;51.898;-0.874;2023-02-23T00:07:35;100370.22;;;19.21;
46015;BME280;36844;51.898;-0.874;2023-02-23T00:10:01;100376.06;;;19.19;
46015;BME280;36844;51.898;-0.874;2023-02-23T00:12:26;100371.44;;;19.16;
46015;BME280;36844;51.898;-0.874;2023-02-23T00:14:51;100371.09;;;19.14;
46015;BME280;36844;51.898;-0.874;2023-02-23T00:17:16;100380.00;;;19.11;
46015;BME280;36844;51.898;-0.874;2023-02-23T00:19:42;100379.59;;;19.09;
46015;BME280;36844;51.898;-0.874;2023-02-23T00:22:07;100375.81;;;19.07;
46015;BME280;36844;51.898;-0.874;2023-02-23T00:24:32;100375.47;;;19.05;
46015;BME280;36844;51.898;-0.874;2023-02-23T00:27:00;100388.56;;;19.03;
46015;BME280;36844;51.898;-0.874;2023-02-23T00:29:30;100375.47;;;19.01;
46015;BME280;36844;51.898;-0.874;2023-02-23T00:32:02;100372.41;;;18.99;
46015;BME280;36844;51.898;-0.874;2023-02-23T00:34:27;100379.41;;;18.97;
46015;BME280;36844;51.898;-0.874;2023-02-23T00:36:53;100387.88;;;18.95;
46015;BME280;36844;51.898;-0.874;2023-02-23T00:39:19;100391.78;;;18.94;
46015;BME280;36844;51.898;-0.874;2023-02-23T00:41:53;100392.59;;;18.91;
46015;BME280;36844;51.898;-0.874;2023-02-23T00:44:19;100388.75;;;18.89;
46015;BME280;36844;51.898;-0.874;2023-02-23T00:46:45;100387.22;;;18.88;
46015;BME280;36844;51.898;-0.874;2023-02-23T00:49:13;100391.06;;;18.87;
46015;BME280;36844;51.898;-0.874;2023-02-23T00:51:39;100398.81;;;18.85;
46015;BME280;36844;51.898;-0.874;2023-02-23T00:54:04;100389.56;;;18.82;
46015;BME280;36844;51.898;-0.874;2023-02-23T00:56:30;100393.47;;;18.81;
46015;BME280;36844;51.898;-0.874;2023-02-23T00:58:55;100400.41;;;18.78;
46015;BME280;36844;51.898;-0.874;2023-02-23T01:01:21;100400.06;;;18.77;
46015;BME280;36844;51.898;-0.874;2023-02-23T01:03:46;100400.44;;;18.75;
46015;BME280;36844;51.898;-0.874;2023-02-23T01:06:13;100402.81;;;18.73;
46015;BME280;36844;51.898;-0.874;2023-02-23T01:08:39;100407.81;;;18.71;
46015;BME280;36844;51.898;-0.874;2023-02-23T01:11:09;100402.06;;;18.69;
46015;BME280;36844;51.898;-0.874;2023-02-23T01:13:38;100405.91;;;18.68;
46015;BME280;36844;51.898;-0.874;2023-02-23T01:16:04;100402.88;;;18.66;
46015;BME280;36844;51.898;-0.874;2023-02-23T01:18:31;100406.72;;;18.65;
46015;BME280;36844;51.898;-0.874;2023-02-23T01:20:58;100409.84;;;18.63;
46015;BME280;36844;51.898;-0.874;2023-02-23T01:23:23;100406.00;;;18.61;
46015;BME280;36844;51.898;-0.874;2023-02-23T01:25:49;100406.41;;;18.59;
46015;BME280;36844;51.898;-0.874;2023-02-23T01:28:14;100411.44;;;18.57;
46015;BME280;36844;51.898;-0.874;2023-02-23T01:30:39;100411.84;;;18.56;
46015;BME280;36844;51.898;-0.874;2023-02-23T01:33:04;100413.00;;;18.55;
46015;BME280;36844;51.898;-0.874;2023-02-23T01:35:30;100414.16;;;18.54;
46015;BME280;36844;51.898;-0.874;2023-02-23T01:37:56;100409.16;;;18.52;
46015;BME280;36844;51.898;-0.874;2023-02-23T01:40:23;100413.44;;;18.50;
46015;BME280;36844;51.898;-0.874;2023-02-23T01:45:28;100414.22;;;18.47;
46015;BME280;36844;51.898;-0.874;2023-02-23T01:47:55;100415.38;;;18.46;
46015;BME280;36844;51.898;-0.874;2023-02-23T01:50:21;100413.88;;;18.45;
46015;BME280;36844;51.898;-0.874;2023-02-23T01:52:49;100415.00;;;18.44;
46015;BME280;36844;51.898;-0.874;2023-02-23T01:55:15;100410.81;;;18.39;
46015;BME280;36844;51.898;-0.874;2023-02-23T01:57:47;100421.63;;;18.39;
46015;BME280;36844;51.898;-0.874;2023-02-23T02:00:13;100426.63;;;18.37;
46015;BME280;36844;51.898;-0.874;2023-02-23T02:02:39;100425.09;;;18.36;
46015;BME280;36844;51.898;-0.874;2023-02-23T02:05:04;100424.75;;;18.34;
46015;BME280;36844;51.898;-0.874;2023-02-23T02:07:37;100426.66;;;18.34;
46015;BME280;36844;51.898;-0.874;2023-02-23T02:10:06;100426.31;;;18.32;
46015;BME280;36844;51.898;-0.874;2023-02-23T02:12:34;100420.16;;;18.31;
46015;BME280;36844;51.898;-0.874;2023-02-23T02:15:00;100420.53;;;18.30;
46015;BME280;36844;51.898;-0.874;2023-02-23T02:34:56;100429.50;;;18.20;
46015;BME280;36844;51.898;-0.874;2023-02-23T02:43:00;100438.75;;;18.15;
46015;BME280;36844;51.898;-0.874;2023-02-23T02:45:39;100428.34;;;18.14;
46015;BME280;36844;51.898;-0.874;2023-02-23T02:48:23;100434.94;;;18.13;
46015;BME280;36844;51.898;-0.874;2023-02-23T02:50:57;100431.84;;;18.11;
46015;BME280;36844;51.898;-0.874;2023-02-23T02:53:32;100434.53;;;18.11;
46015;BME280;36844;51.898;-0.874;2023-02-23T02:56:00;100436.44;;;18.10;
46015;BME280;36844;51.898;-0.874;2023-02-23T02:58:29;100432.66;;;18.08;
46015;BME280;36844;51.898;-0.874;2023-02-23T03:00:54;100426.47;;;18.07;
46015;BME280;36844;51.898;-0.874;2023-02-23T03:03:39;100431.50;;;18.05;
46015;BME280;36844;51.898;-0.874;2023-02-23T03:06:33;100429.19;;;18.04;
46015;BME280;36844;51.898;-0.874;2023-02-23T03:15:17;100429.63;;;17.99;
46015;BME280;36844;51.898;-0.874;2023-02-23T03:21:20;100433.09;;;17.96;
46015;BME280;36844;51.898;-0.874;2023-02-23T03:24:12;100433.50;;;17.94;
46015;BME280;36844;51.898;-0.874;2023-02-23T03:26:59;100427.34;;;17.94;
46015;BME280;36844;51.898;-0.874;2023-02-23T03:29:46;100441.97;;;17.93;
46015;BME280;36844;51.898;-0.874;2023-02-23T03:32:32;100439.69;;;17.91;
46015;BME280;36844;51.898;-0.874;2023-02-23T03:35:39;100432.75;;;17.90;
46015;BME280;36844;51.898;-0.874;2023-02-23T03:38:31;100441.22;;;17.89;
46015;BME280;36844;51.898;-0.874;2023-02-23T03:41:16;100444.31;;;17.87;
46015;BME280;36844;51.898;-0.874;2023-02-23T03:44:02;100452.41;;;17.87;
46015;BME280;36844;51.898;-0.874;2023-02-23T03:46:47;100447.41;;;17.86;
46015;BME280;36844;51.898;-0.874;2023-02-23T03:49:33;100441.25;;;17.85;
46015;BME280;36844;51.898;-0.874;2023-02-23T03:52:21;100447.03;;;17.84;
46015;BME280;36844;51.898;-0.874;2023-02-23T03:55:09;100454.34;;;17.83;
46015;BME280;36844;51.898;-0.874;2023-02-23T03:57:54;100440.50;;;17.81;
46015;BME280;36844;51.898;-0.874;2023-02-23T04:00:41;100444.38;;;17.80;
46015;BME280;36844;51.898;-0.874;2023-02-23T04:03:27;100445.50;;;17.79;
46015;BME280;36844;51.898;-0.874;2023-02-23T04:06:12;100454.78;;;17.78;
46015;BME280;36844;51.898;-0.874;2023-02-23T04:08:57;100457.84;;;17.77;
46015;BME280;36844;51.898;-0.874;2023-02-23T04:14:28;100461.31;;;17.73;
46015;BME280;36844;51.898;-0.874;2023-02-23T04:16:55;100469.41;;;17.73;
46015;BME280;36844;51.898;-0.874;2023-02-23T04:19:20;100465.19;;;17.72;
46015;BME280;36844;51.898;-0.874;2023-02-23T04:21:46;100465.19;;;17.72;
46015;BME280;36844;51.898;-0.874;2023-02-23T04:24:11;100465.19;;;17.72;
46015;BME280;36844;51.898;-0.874;2023-02-23T04:26:36;100473.28;;;17.72;
46015;BME280;36844;51.898;-0.874;2023-02-23T04:29:02;100470.19;;;17.70;
46015;BME280;36844;51.898;-0.874;2023-02-23T04:31:27;100473.63;;;17.71;
46015;BME280;36844;51.898;-0.874;2023-02-23T04:33:52;100479.44;;;17.69;
46015;BME280;36844;51.898;-0.874;2023-02-23T04:36:17;100472.50;;;17.68;
46015;BME280;36844;51.898;-0.874;2023-02-23T04:38:43;100474.44;;;17.68;
46015;BME280;36844;51.898;-0.874;2023-02-23T04:41:08;100479.81;;;17.68;
46015;BME280;36844;51.898;-0.874;2023-02-23T04:43:33;100484.44;;;17.67;
46015;BME280;36844;51.898;-0.874;2023-02-23T04:45:58;100492.91;;;17.66;
46015;BME280;36844;51.898;-0.874;2023-02-23T04:48:24;100474.44;;;17.64;
46015;BME280;36844;51.898;-0.874;2023-02-23T04:50:51;100490.63;;;17.64;
46015;BME280;36844;51.898;-0.874;2023-02-23T04:53:16;100491.75;;;17.63;
46015;BME280;36844;51.898;-0.874;2023-02-23T04:55:41;100484.84;;;17.62;
46015;BME280;36844;51.898;-0.874;2023-02-23T04:58:07;100492.19;;;17.62;
46015;BME280;36844;51.898;-0.874;2023-02-23T05:00:37;100498.72;;;17.61;
46015;BME280;36844;51.898;-0.874;2023-02-23T05:03:03;100507.16;;;17.59;
46015;BME280;36844;51.898;-0.874;2023-02-23T05:05:28;100502.53;;;17.60;
46015;BME280;36844;51.898;-0.874;2023-02-23T05:07:53;100502.97;;;17.58;
46015;BME280;36844;51.898;-0.874;2023-02-23T05:10:19;100496.03;;;17.57;
46015;BME280;36844;51.898;-0.874;2023-02-23T05:12:44;100494.47;;;17.56;
46015;BME280;36844;51.898;-0.874;2023-02-23T05:15:10;100502.56;;;17.56;
46015;BME280;36844;51.898;-0.874;2023-02-23T05:17:36;100502.97;;;17.55;
46015;BME280;36844;51.898;-0.874;2023-02-23T05:20:02;100502.22;;;17.54;
46015;BME280;36844;51.898;-0.874;2023-02-23T05:22:27;100494.50;;;17.53;
46015;BME280;36844;51.898;-0.874;2023-02-23T05:24:52;100496.41;;;17.52;
46015;BME280;36844;51.898;-0.874;2023-02-23T05:27:17;100502.94;;;17.51;
46015;BME280;36844;51.898;-0.874;2023-02-23T05:29:43;100502.94;;;17.51;
46015;BME280;36844;51.898;-0.874;2023-02-23T05:32:08;100508.75;;;17.50;
46015;BME280;36844;51.898;-0.874;2023-02-23T05:34:33;100510.66;;;17.49;
46015;BME280;36844;51.898;-0.874;2023-02-23T05:36:59;100514.50;;;17.48;
46015;BME280;36844;51.898;-0.874;2023-02-23T05:39:24;100521.81;;;17.48;
46015;BME280;36844;51.898;-0.874;2023-02-23T05:41:49;100517.63;;;17.47;
46015;BME280;36844;51.898;-0.874;2023-02-23T05:44:15;100519.53;;;17.46;
46015;BME280;36844;51.898;-0.874;2023-02-23T05:46:40;100520.69;;;17.45;
46015;BME280;36844;51.898;-0.874;2023-02-23T05:49:05;100529.91;;;17.44;
46015;BME280;36844;51.898;-0.874;2023-02-23T05:51:31;100537.19;;;17.44;
46015;BME280;36844;51.898;-0.874;2023-02-23T05:53:56;100536.47;;;17.43;
46015;BME280;36844;51.898;-0.874;2023-02-23T05:56:22;100542.22;;;17.42;
46015;BME280;36844;51.898;-0.874;2023-02-23T05:58:47;100547.63;;;17.42;
46015;BME280;36844;51.898;-0.874;2023-02-23T06:01:13;100553.38;;;17.40;
46015;BME280;36844;51.898;-0.874;2023-02-23T06:03:38;100554.56;;;17.39;
46015;BME280;36844;51.898;-0.874;2023-02-23T06:06:03;100544.53;;;17.40;
46015;BME280;36844;51.898;-0.874;2023-02-23T06:08:29;100547.63;;;17.38;
46015;BME280;36844;51.898;-0.874;2023-02-23T06:10:54;100554.16;;;17.37;
46015;BME280;36844;51.898;-0.874;2023-02-23T06:13:19;100548.75;;;17.37;
46015;BME280;36844;51.898;-0.874;2023-02-23T06:15:45;100554.56;;;17.36;
46015;BME280;36844;51.898;-0.874;2023-02-23T06:18:10;100561.09;;;17.35;
46015;BME280;36844;51.898;-0.874;2023-02-23T06:20:35;100560.31;;;17.34;
46015;BME280;36844;51.898;-0.874;2023-02-23T06:23:01;100567.63;;;17.34;
46015;BME280;36844;51.898;-0.874;2023-02-23T06:25:26;100572.22;;;17.33;
46015;BME280;36844;51.898;-0.874;2023-02-23T06:27:51;100577.63;;;17.33;
46015;BME280;36844;51.898;-0.874;2023-02-23T06:30:16;100579.94;;;17.31;
46015;BME280;36844;51.898;-0.874;2023-02-23T06:32:42;100592.63;;;17.31;
46015;BME280;36844;51.898;-0.874;2023-02-23T06:35:07;100591.88;;;17.30;
46015;BME280;36844;51.898;-0.874;2023-02-23T06:37:33;100601.84;;;17.30;
46015;BME280;36844;51.898;-0.874;2023-02-23T06:39:59;100610.34;;;17.28;
46015;BME280;36844;51.898;-0.874;2023-02-23T06:42:24;100615.72;;;17.28;
46015;BME280;36844;51.898;-0.874;2023-02-23T06:44:49;100613.03;;;17.28;
46015;BME280;36844;51.898;-0.874;2023-02-23T06:47:14;100612.25;;;17.28;
46015;BME280;36844;51.898;-0.874;2023-02-23T06:49:40;100617.66;;;17.28;
46015;BME280;36844;51.898;-0.874;2023-02-23T06:52:06;100637.97;;;17.29;
46015;BME280;36844;51.898;-0.874;2023-02-23T06:54:31;100653.41;;;17.28;
46015;BME280;36844;51.898;-0.874;2023-02-23T06:56:58;100656.81;;;17.29;
46015;BME280;36844;51.898;-0.874;2023-02-23T06:59:23;100656.47;;;17.30;
46015;BME280;36844;51.898;-0.874;2023-02-23T07:01:48;100655.31;;;17.31;
46015;BME280;36844;51.898;-0.874;2023-02-23T07:04:13;100658.38;;;17.33;
46015;BME280;36844;51.898;-0.874;2023-02-23T07:06:39;100649.16;;;17.34;
46015;BME280;36844;51.898;-0.874;2023-02-23T07:09:04;100664.19;;;17.35;
46015;BME280;36844;51.898;-0.874;2023-02-23T07:11:29;100678.00;;;17.37;
46015;BME280;36844;51.898;-0.874;2023-02-23T07:13:58;100683.78;;;17.39;
46015;BME280;36844;51.898;-0.874;2023-02-23T07:16:23;100682.25;;;17.42;
46015;BME280;36844;51.898;-0.874;2023-02-23T07:18:51;100686.06;;;17.44;
46015;BME280;36844;51.898;-0.874;2023-02-23T07:21:16;100680.69;;;17.44;
46015;BME280;36844;51.898;-0.874;2023-02-23T07:23:42;100695.34;;;17.50;
46015;BME280;36844;51.898;-0.874;2023-02-23T07:26:07;100694.56;;;17.53;
46015;BME280;36844;51.898;-0.874;2023-02-23T07:28:33;100697.25;;;17.57;
46015;BME280;36844;51.898;-0.874;2023-02-23T07:30:58;100702.63;;;17.60;
46015;BME280;36844;51.898;-0.874;2023-02-23T07:33:24;100706.88;;;17.65;
46015;BME280;36844;51.898;-0.874;2023-02-23T07:35:50;100707.63;;;17.69;
46015;BME280;36844;51.898;-0.874;2023-02-23T07:38:15;100709.94;;;17.74;
46015;BME280;36844;51.898;-0.874;2023-02-23T07:40:40;100724.16;;;17.78;
46015;BME280;36844;51.898;-0.874;2023-02-23T07:43:06;100728.03;;;17.84;
46015;BME280;36844;51.898;-0.874;2023-02-23T07:45:31;100728.00;;;17.88;
46015;BME280;36844;51.898;-0.874;2023-02-23T07:47:57;100734.16;;;17.92;
46015;BME280;36844;51.898;-0.874;2023-02-23T07:50:24;100733.78;;;17.97;
46015;BME280;36844;51.898;-0.874;2023-02-23T07:52:49;100745.31;;;18.01;
46015;BME280;36844;51.898;-0.874;2023-02-23T07:55:14;100738.00;;;18.05;
46015;BME280;36844;51.898;-0.874;2023-02-23T07:57:41;100751.47;;;18.08;
46015;BME280;36844;51.898;-0.874;2023-02-23T08:00:06;100746.84;;;18.12;
46015;BME280;36844;51.898;-0.874;2023-02-23T08:02:32;100746.84;;;18.16;
46015;BME280;36844;51.898;-0.874;2023-02-23T08:04:57;100746.03;;;18.19;
46015;BME280;36844;51.898;-0.874;2023-02-23T08:07:22;100745.25;;;18.22;
46015;BME280;36844;51.898;-0.874;2023-02-23T08:09:49;100749.13;;;18.24;
46015;BME280;36844;51.898;-0.874;2023-02-23T08:12:15;100757.59;;;18.26;
46015;BME280;36844;51.898;-0.874;2023-02-23T08:14:41;100750.63;;;18.29;
46015;BME280;36844;51.898;-0.874;2023-02-23T08:17:06;100752.56;;;18.32;
46015;BME280;36844;51.898;-0.874;2023-02-23T08:19:32;100752.16;;;18.33;
46015;BME280;36844;51.898;-0.874;2023-02-23T08:21:58;100764.09;;;18.36;
46015;BME280;36844;51.898;-0.874;2023-02-23T08:24:23;100751.81;;;18.35;
46015;BME280;36844;51.898;-0.874;2023-02-23T08:26:49;100762.94;;;18.37;
46015;BME280;36844;51.898;-0.874;2023-02-23T08:29:14;100759.09;;;18.38;
46015;BME280;36844;51.898;-0.874;2023-02-23T08:31:39;100759.09;;;18.38;
46015;BME280;36844;51.898;-0.874;2023-02-23T08:34:04;100759.88;;;18.38;
46015;BME280;36844;51.898;-0.874;2023-02-23T08:36:30;100774.09;;;18.39;
46015;BME280;36844;51.898;-0.874;2023-02-23T08:38:55;100769.50;;;18.39;
46015;BME280;36844;51.898;-0.874;2023-02-23T08:41:21;100776.81;;;18.39;
46015;BME280;36844;51.898;-0.874;2023-02-23T08:43:46;100776.81;;;18.39;
46015;BME280;36844;51.898;-0.874;2023-02-23T08:46:12;100767.97;;;18.38;
46015;BME280;36844;51.898;-0.874;2023-02-23T08:48:38;100768.72;;;18.39;
46015;BME280;36844;51.898;-0.874;2023-02-23T08:51:04;100757.94;;;18.39;
46015;BME280;36844;51.898;-0.874;2023-02-23T08:53:29;100764.50;;;18.38;
46015;BME280;36844;51.898;-0.874;2023-02-23T08:55:56;100762.94;;;18.37;
46015;BME280;36844;51.898;-0.874;2023-02-23T08:58:21;100762.16;;;18.36;
46015;BME280;36844;51.898;-0.874;2023-02-23T09:00:47;100758.69;;;18.36;
46015;BME280;36844;51.898;-0.874;2023-02-23T09:03:12;100765.28;;;18.35;
46015;BME280;36844;51.898;-0.874;2023-02-23T09:05:37;100753.72;;;18.34;
46015;BME280;36844;51.898;-0.874;2023-02-23T09:08:03;100755.63;;;18.34;
46015;BME280;36844;51.898;-0.874;2023-02-23T09:10:28;100752.16;;;18.33;
46015;BME280;36844;51.898;-0.874;2023-02-23T09:12:54;100756.78;;;18.33;
46015;BME280;36844;51.898;-0.874;2023-02-23T09:15:19;100755.25;;;18.32;
46015;BME280;36844;51.898;-0.874;2023-02-23T09:17:45;100769.91;;;18.31;
46015;BME280;36844;51.898;-0.874;2023-02-23T09:20:11;100768.00;;;18.31;
46015;BME280;36844;51.898;-0.874;2023-02-23T09:22:38;100770.69;;;18.31;
46015;BME280;36844;51.898;-0.874;2023-02-23T09:25:03;100787.63;;;18.32;
46015;BME280;36844;51.898;-0.874;2023-02-23T09:27:29;100787.63;;;18.32;
46015;BME280;36844;51.898;-0.874;2023-02-23T09:29:54;100794.53;;;18.33;
46015;BME280;36844;51.898;-0.874;2023-02-23T09:32:19;100797.22;;;18.33;
46015;BME280;36844;51.898;-0.874;2023-02-23T09:34:44;100798.78;;;18.34;
46015;BME280;36844;51.898;-0.874;2023-02-23T09:37:12;100809.94;;;18.36;
46015;BME280;36844;51.898;-0.874;2023-02-23T09:39:37;100806.09;;;18.37;
46015;BME280;36844;51.898;-0.874;2023-02-23T09:42:11;100804.94;;;18.38;
46015;BME280;36844;51.898;-0.874;2023-02-23T09:47:29;100810.69;;;18.40;
46015;BME280;36844;51.898;-0.874;2023-02-23T09:49:57;100809.94;;;18.43;
46015;BME280;36844;51.898;-0.874;2023-02-23T09:52:24;100817.25;;;18.46;
46015;BME280;36844;51.898;-0.874;2023-02-23T09:54:50;100812.22;;;18.48;
46015;BME280;36844;51.898;-0.874;2023-02-23T09:57:23;100818.78;;;18.50;
46015;BME280;36844;51.898;-0.874;2023-02-23T09:59:49;100808.38;;;18.52;
46015;BME280;36844;51.898;-0.874;2023-02-23T10:04:46;100800.66;;;18.58;
46015;BME280;36844;51.898;-0.874;2023-02-23T10:22:03;100807.53;;;18.73;
46015;BME280;36844;51.898;-0.874;2023-02-23T10:24:31;100816.75;;;18.75;
46015;BME280;36844;51.898;-0.874;2023-02-23T10:27:01;100824.50;;;18.77;
46015;BME280;36844;51.898;-0.874;2023-02-23T10:29:31;100821.38;;;18.78;
46015;BME280;36844;51.898;-0.874;2023-02-23T10:32:13;100820.22;;;18.80;
46015;BME280;36844;51.898;-0.874;2023-02-23T10:34:39;100816.38;;;18.81;
46015;BME280;36844;51.898;-0.874;2023-02-23T10:37:05;100824.47;;;18.81;
46015;BME280;36844;51.898;-0.874;2023-02-23T10:39:31;100825.25;;;18.81;
46015;BME280;36844;51.898;-0.874;2023-02-23T10:42:01;100828.69;;;18.82;
46015;BME280;36844;51.898;-0.874;2023-02-23T10:44:27;100826.00;;;18.82;
46015;BME280;36844;51.898;-0.874;2023-02-23T10:46:54;100834.84;;;18.82;
46015;BME280;36844;51.898;-0.874;2023-02-23T10:49:21;100844.50;;;18.83;
46015;BME280;36844;51.898;-0.874;2023-02-23T10:51:48;100844.50;;;18.83;
46015;BME280;36844;51.898;-0.874;2023-02-23T10:56:59;100849.91;;;18.83;
46015;BME280;36844;51.898;-0.874;2023-02-23T10:59:25;100839.88;;;18.84;
46015;BME280;36844;51.898;-0.874;2023-02-23T11:01:50;100848.75;;;18.84;
46015;BME280;36844;51.898;-0.874;2023-02-23T11:04:23;100846.06;;;18.84;
46015;BME280;36844;51.898;-0.874;2023-02-23T11:06:49;100840.66;;;18.84;
46015;BME280;36844;51.898;-0.874;2023-02-23T11:12:24;100844.88;;;18.85;
46015;BME280;36844;51.898;-0.874;2023-02-23T11:14:56;100838.69;;;18.85;
46015;BME280;36844;51.898;-0.874;2023-02-23T11:17:29;100846.06;;;18.84;
46015;BME280;36844;51.898;-0.874;2023-02-23T11:19:59;100848.75;;;18.84;
46015;BME280;36844;51.898;-0.874;2023-02-23T11:22:28;100848.34;;;18.86;
46015;BME280;36844;51.898;-0.874;2023-02-23T11:24:54;100857.59;;;18.85;
46015;BME280;36844;51.898;-0.874;2023-02-23T11:27:21;100847.59;;;18.85;
46015;BME280;36844;51.898;-0.874;2023-02-23T11:29:48;100847.59;;;18.85;
46015;BME280;36844;51.898;-0.874;2023-02-23T11:32:31;100857.97;;;18.87;
46015;BME280;36844;51.898;-0.874;2023-02-23T11:37:41;100859.91;;;18.86;
46015;BME280;36844;51.898;-0.874;2023-02-23T11:40:20;100854.50;;;18.86;
46015;BME280;36844;51.898;-0.874;2023-02-23T11:42:49;100856.06;;;18.87;
46015;BME280;36844;51.898;-0.874;2023-02-23T11:45:16;100856.06;;;18.87;
46015;BME280;36844;51.898;-0.874;2023-02-23T11:47:45;100856.84;;;18.88;
46015;BME280;36844;51.898;-0.874;2023-02-23T11:52:45;100867.25;;;18.89;
46015;BME280;36844;51.898;-0.874;2023-02-23T11:55:14;100868.75;;;18.90;
46015;BME280;36844;51.898;-0.874;2023-02-23T11:57:40;100860.66;;;18.90;
46015;BME280;36844;51.898;-0.874;2023-02-23T12:00:10;100864.91;;;18.91;
46015;BME280;36844;51.898;-0.874;2023-02-23T12:02:43;100859.13;;;18.93;
46015;BME280;36844;51.898;-0.874;2023-02-23T12:05:28;100852.94;;;18.92;
46015;BME280;36844;51.898;-0.874;2023-02-23T12:08:02;100858.34;;;18.92;
46015;BME280;36844;51.898;-0.874;2023-02-23T12:10:30;100850.63;;;18.94;
46015;BME280;36844;51.898;-0.874;2023-02-23T12:15:55;100861.41;;;18.94;
46015;BME280;36844;51.898;-0.874;2023-02-23T12:20:51;100859.50;;;18.95;
46015;BME280;36844;51.898;-0.874;2023-02-23T12:23:20;100859.50;;;18.95;
46015;BME280;36844;51.898;-0.874;2023-02-23T12:25:55;100866.44;;;18.96;
46015;BME280;36844;51.898;-0.874;2023-02-23T12:30:55;100855.63;;;18.96;
46015;BME280;36844;51.898;-0.874;2023-02-23T12:33:41;100852.16;;;18.95;
46015;BME280;36844;51.898;-0.874;2023-02-23T12:41:05;100867.59;;;18.95;
46015;BME280;36844;51.898;-0.874;2023-02-23T12:43:46;100865.28;;;18.93;
46015;BME280;36844;51.898;-0.874;2023-02-23T12:46:23;100865.28;;;18.93;
46015;BME280;36844;51.898;-0.874;2023-02-23T12:49:07;100873.41;;;18.93;
46015;BME280;36844;51.898;-0.874;2023-02-23T12:54:03;100861.81;;;18.93;
46015;BME280;36844;51.898;-0.874;2023-02-23T12:59:17;100869.53;;;18.94;
46015;BME280;36844;51.898;-0.874;2023-02-23T13:01:46;100865.66;;;18.95;
46015;BME280;36844;51.898;-0.874;2023-02-23T13:09:29;100866.41;;;18.99;
46015;BME280;36844;51.898;-0.874;2023-02-23T13:19:57;100861.78;;;19.03;
46015;BME280;36844;51.898;-0.874;2023-02-23T13:22:27;100857.16;;;19.04;
46015;BME280;36844;51.898;-0.874;2023-02-23T13:24:54;100869.06;;;19.06;
46015;BME280;36844;51.898;-0.874;2023-02-23T13:29:49;100865.59;;;19.09;
46015;BME280;36844;51.898;-0.874;2023-02-23T13:32:18;100861.75;;;19.10;
46015;BME280;36844;51.898;-0.874;2023-02-23T13:34:47;100862.50;;;19.11;
46015;BME280;36844;51.898;-0.874;2023-02-23T13:37:59;100857.47;;;19.13;
46015;BME280;36844;51.898;-0.874;2023-02-23T13:47:56;100857.84;;;19.18;
46015;BME280;36844;51.898;-0.874;2023-02-23T13:50:25;100858.97;;;19.21;
46015;BME280;36844;51.898;-0.874;2023-02-23T13:52:53;100862.84;;;19.23;
46015;BME280;36844;51.898;-0.874;2023-02-23T13:57:51;100855.09;;;19.29;
46015;BME280;36844;51.898;-0.874;2023-02-23T14:00:20;100861.66;;;19.31;
46015;BME280;36844;51.898;-0.874;2023-02-23T14:02:46;100862.00;;;19.33;
46015;BME280;36844;51.898;-0.874;2023-02-23T14:08:07;100874.34;;;19.38;
46015;BME280;36844;51.898;-0.874;2023-02-23T14:10:39;100877.78;;;19.42;
46015;BME280;36844;51.898;-0.874;2023-02-23T14:15:46;100878.91;;;19.44;
46015;BME280;36844;51.898;-0.874;2023-02-23T14:23:28;100878.53;;;19.49;
46015;BME280;36844;51.898;-0.874;2023-02-23T14:28:40;100875.41;;;19.51;
46015;BME280;36844;51.898;-0.874;2023-02-23T14:38:49;100876.56;;;19.53;
46015;BME280;36844;51.898;-0.874;2023-02-23T14:41:19;100880.03;;;19.54;
46015;BME280;36844;51.898;-0.874;2023-02-23T14:43:45;100875.41;;;19.54;
46015;BME280;36844;51.898;-0.874;2023-02-23T14:46:22;100876.56;;;19.53;
46015;BME280;36844;51.898;-0.874;2023-02-23T14:48:55;100880.81;;;19.54;
46015;BME280;36844;51.898;-0.874;2023-02-23T14:51:30;100881.97;;;19.53;
46015;BME280;36844;51.898;-0.874;2023-02-23T14:53:58;100885.44;;;19.54;
46015;BME280;36844;51.898;-0.874;2023-02-23T14:56:24;100891.22;;;19.52;
46015;BME280;36844;51.898;-0.874;2023-02-23T14:58:50;100887.38;;;19.53;
46015;BME280;36844;51.898;-0.874;2023-02-23T15:04:10;100893.56;;;19.50;
46015;BME280;36844;51.898;-0.874;2023-02-23T15:06:36;100892.03;;;19.49;
46015;BME280;36844;51.898;-0.874;2023-02-23T15:09:02;100902.06;;;19.49;
46015;BME280;36844;51.898;-0.874;2023-02-23T15:11:28;100900.50;;;19.48;
46015;BME280;36844;51.898;-0.874;2023-02-23T15:13:55;100903.63;;;19.46;
46015;BME280;36844;51.898;-0.874;2023-02-23T15:16:30;100909.03;;;19.46;
46015;BME280;36844;51.898;-0.874;2023-02-23T15:18:58;100899.75;;;19.44;
46015;BME280;36844;51.898;-0.874;2023-02-23T15:21:24;100901.69;;;19.43;
46015;BME280;36844;51.898;-0.874;2023-02-23T15:23:51;100899.00;;;19.43;
46015;BME280;36844;51.898;-0.874;2023-02-23T15:26:33;100898.63;;;19.41;
46015;BME280;36844;51.898;-0.874;2023-02-23T15:29:41;100895.91;;;19.41;
46015;BME280;36844;51.898;-0.874;2023-02-23T15:31:49;100899.78;;;19.40;
46015;BME280;36844;51.898;-0.874;2023-02-23T15:34:17;100902.47;;;19.40;
46015;BME280;36844;51.898;-0.874;2023-02-23T15:36:45;100912.13;;;19.41;
46015;BME280;36844;51.898;-0.874;2023-02-23T15:39:12;100907.88;;;19.40;
46015;BME280;36844;51.898;-0.874;2023-02-23T15:41:40;100902.47;;;19.40;
46015;BME280;36844;51.898;-0.874;2023-02-23T15:44:10;100906.72;;;19.41;
46015;BME280;36844;51.898;-0.874;2023-02-23T15:46:43;100908.28;;;19.42;
46015;BME280;36844;51.898;-0.874;2023-02-23T15:49:10;100914.47;;;19.43;
46015;BME280;36844;51.898;-0.874;2023-02-23T15:51:36;100912.13;;;19.45;
46015;BME280;36844;51.898;-0.874;2023-02-23T15:54:07;100919.06;;;19.46;
46015;BME280;36844;51.898;-0.874;2023-02-23T15:56:38;100915.94;;;19.47;